De Leon Springs, FL (32130)

8:19 PM EST on November 23, 2014 (GMT -0500)
Glenwood | Change Station
CLOSE
Current Station
Personal Weather Station
Location: DeLand, FL
Elevation: 52 ft
Nearby Weather Stations

Elev 52 ft 29.09 °N, 81.34 °W | Updated 4 minutes ago

Overcast
Overcast
74.4 °F
Feels Like 72 °F
N
0.0
Wind Variable Wind from SE
Gusts 3.0 mph

Today
High -- | Low -- °F
--% Chance of Precip.
Yesterday
High -- | Low -- °F
Precip. -- in
6:55 AM 5:27 PM
Waxing Crescent, 3% visible
Pressure 29.93 in
Visibility 10.0 miles
Clouds Scattered Clouds 3500 ft
Scattered Clouds 4600 ft
Heat Index 72 °F
Dew Point 73 °F
Humidity 94%
Rainfall 0.18 in
Snow Depth Not available.
UV 0 out of 12
Pollen .50 out of 12
Air Quality Not available.
Flu Activity Not available.
METAR KDED 240055Z AUTO 19004KT 10SM SCT035 SCT046 24/22 A2993 RMK AO1 P0004

More Conditions Fewer Conditions

Pressure 29.93 in
Visibility 10.0 miles
Clouds Scattered Clouds 3500 ft
Scattered Clouds 4600 ft
Heat Index 72 °F
Dew Point 73 °F
Humidity 94%
Rainfall 0.18 in
Snow Depth Not available.
UV 0 out of 12
Pollen .50 out of 12
Air Quality Not available.
Flu Activity Not available.
METAR KDED 240055Z AUTO 19004KT 10SM SCT035 SCT046 24/22 A2993 RMK AO1 P0004

More Conditions Fewer Conditions

Nowcast | as of 6:41 PM EST on November 23, 2014

Large long period seas coming into the east central Florida coastal waters will produce strong rip currents and rough surf through mid evening. The large waves will also maintain a Small Craft Advisory for all of east central Florida's coastal waters out to 60 miles through late evening. Showers mostly west of Interstate 95 were moving to the north northeast at around 20 mph. Isolated showers will be possible between Orlando and Daytona Beach through mid evening. Additional details...including graphics are available online at: http://www.Srh.NOAA.Gov/mlb/blog.Php

×

10-Day Weather Forecast

Almanac

Astronomy

Nov. 23, 2014 Rise Set
Actual Time
Civil Twilight
Nautical Twilight
Astronomical Twilight
Moon
Length of Visible Light
Length of Day
Tomorrow will be .
, % of the Moon is Illuminated

Today's Extremes

State Highs State Lows

Community

WunderPhotos

Upload Photos

1,773,234 photos uploaded!

WunderBlogs® & News

Nearby

Air Quality

  Air Quality AQ Index Pollutant
Not available.

Snow Depth

Station Depth Elevation

Earthquake Activity

City Distance Mag. Time & Date
Minimum magnitude displayed is 2.5.

Coastal Water Temperatures

Place Temperature

Nearby Weather Stations